sensor_id;sensor_type;location;lat;lon;timestamp;P1;durP1;ratioP1;P2;durP2;ratioP2
19187;SDS011;9726;52.198;8.792;2023-11-19T00:00:08;5.70;;;2.33;;
19187;SDS011;9726;52.198;8.792;2023-11-19T00:02:40;3.63;;;2.57;;
19187;SDS011;9726;52.198;8.792;2023-11-19T00:05:09;6.27;;;3.07;;
19187;SDS011;9726;52.198;8.792;2023-11-19T00:07:39;3.57;;;2.80;;
19187;SDS011;9726;52.198;8.792;2023-11-19T00:10:11;5.40;;;2.70;;
19187;SDS011;9726;52.198;8.792;2023-11-19T00:12:42;8.93;;;3.27;;
19187;SDS011;9726;52.198;8.792;2023-11-19T00:15:11;5.67;;;3.60;;
19187;SDS011;9726;52.198;8.792;2023-11-19T00:17:39;3.37;;;3.07;;
19187;SDS011;9726;52.198;8.792;2023-11-19T00:20:12;4.30;;;3.33;;
19187;SDS011;9726;52.198;8.792;2023-11-19T00:22:40;3.90;;;3.27;;
19187;SDS011;9726;52.198;8.792;2023-11-19T00:25:11;4.33;;;3.07;;
19187;SDS011;9726;52.198;8.792;2023-11-19T00:27:38;3.10;;;2.80;;
19187;SDS011;9726;52.198;8.792;2023-11-19T00:30:06;3.47;;;3.00;;
19187;SDS011;9726;52.198;8.792;2023-11-19T00:32:37;2.80;;;2.60;;
19187;SDS011;9726;52.198;8.792;2023-11-19T00:35:06;3.47;;;2.53;;
19187;SDS011;9726;52.198;8.792;2023-11-19T00:37:37;2.53;;;2.23;;
19187;SDS011;9726;52.198;8.792;2023-11-19T00:40:04;3.33;;;2.23;;
19187;SDS011;9726;52.198;8.792;2023-11-19T00:42:32;2.53;;;2.33;;
19187;SDS011;9726;52.198;8.792;2023-11-19T00:45:00;4.03;;;1.77;;
19187;SDS011;9726;52.198;8.792;2023-11-19T00:47:29;1.70;;;1.60;;
19187;SDS011;9726;52.198;8.792;2023-11-19T00:49:57;2.33;;;1.60;;
19187;SDS011;9726;52.198;8.792;2023-11-19T00:52:24;2.10;;;1.77;;
19187;SDS011;9726;52.198;8.792;2023-11-19T00:54:52;2.37;;;1.70;;
19187;SDS011;9726;52.198;8.792;2023-11-19T00:57:20;1.80;;;1.57;;
19187;SDS011;9726;52.198;8.792;2023-11-19T00:59:47;2.57;;;1.60;;
19187;SDS011;9726;52.198;8.792;2023-11-19T01:02:14;1.67;;;1.40;;
19187;SDS011;9726;52.198;8.792;2023-11-19T01:04:41;5.33;;;1.63;;
19187;SDS011;9726;52.198;8.792;2023-11-19T01:07:09;2.10;;;1.60;;
19187;SDS011;9726;52.198;8.792;2023-11-19T01:09:41;1.60;;;1.50;;
19187;SDS011;9726;52.198;8.792;2023-11-19T01:12:09;1.60;;;1.50;;
19187;SDS011;9726;52.198;8.792;2023-11-19T01:14:37;1.53;;;1.43;;
19187;SDS011;9726;52.198;8.792;2023-11-19T01:17:05;2.07;;;1.87;;
19187;SDS011;9726;52.198;8.792;2023-11-19T01:19:34;2.43;;;2.03;;
19187;SDS011;9726;52.198;8.792;2023-11-19T01:22:01;1.80;;;1.70;;
19187;SDS011;9726;52.198;8.792;2023-11-19T01:24:28;2.33;;;2.07;;
19187;SDS011;9726;52.198;8.792;2023-11-19T01:26:57;2.40;;;2.07;;
19187;SDS011;9726;52.198;8.792;2023-11-19T01:29:26;2.73;;;1.63;;
19187;SDS011;9726;52.198;8.792;2023-11-19T01:31:53;1.57;;;1.47;;
19187;SDS011;9726;52.198;8.792;2023-11-19T01:34:20;2.50;;;1.40;;
19187;SDS011;9726;52.198;8.792;2023-11-19T01:36:48;1.30;;;1.20;;
19187;SDS011;9726;52.198;8.792;2023-11-19T01:39:15;1.87;;;1.50;;
19187;SDS011;9726;52.198;8.792;2023-11-19T01:41:43;5.30;;;1.73;;
19187;SDS011;9726;52.198;8.792;2023-11-19T01:44:10;3.70;;;2.50;;
19187;SDS011;9726;52.198;8.792;2023-11-19T01:46:40;4.03;;;2.70;;
19187;SDS011;9726;52.198;8.792;2023-11-19T01:49:10;5.87;;;3.50;;
19187;SDS011;9726;52.198;8.792;2023-11-19T01:51:40;5.80;;;3.63;;
19187;SDS011;9726;52.198;8.792;2023-11-19T01:54:08;5.83;;;3.80;;
19187;SDS011;9726;52.198;8.792;2023-11-19T01:56:36;5.00;;;4.17;;
19187;SDS011;9726;52.198;8.792;2023-11-19T01:59:04;5.80;;;5.13;;
19187;SDS011;9726;52.198;8.792;2023-11-19T02:01:32;6.50;;;5.13;;
19187;SDS011;9726;52.198;8.792;2023-11-19T02:04:01;8.77;;;6.23;;
19187;SDS011;9726;52.198;8.792;2023-11-19T02:06:29;10.90;;;7.33;;
19187;SDS011;9726;52.198;8.792;2023-11-19T02:08:59;10.70;;;7.03;;
19187;SDS011;9726;52.198;8.792;2023-11-19T02:11:26;10.93;;;8.10;;
19187;SDS011;9726;52.198;8.792;2023-11-19T02:13:56;11.87;;;8.07;;
19187;SDS011;9726;52.198;8.792;2023-11-19T02:16:23;11.77;;;7.60;;
19187;SDS011;9726;52.198;8.792;2023-11-19T02:18:51;10.90;;;7.57;;
19187;SDS011;9726;52.198;8.792;2023-11-19T02:21:18;8.83;;;7.23;;
19187;SDS011;9726;52.198;8.792;2023-11-19T02:23:45;9.60;;;7.57;;
19187;SDS011;9726;52.198;8.792;2023-11-19T02:26:13;11.93;;;8.43;;
19187;SDS011;9726;52.198;8.792;2023-11-19T02:28:48;11.33;;;7.13;;
19187;SDS011;9726;52.198;8.792;2023-11-19T02:31:15;9.63;;;6.27;;
19187;SDS011;9726;52.198;8.792;2023-11-19T02:33:42;9.40;;;7.57;;
19187;SDS011;9726;52.198;8.792;2023-11-19T02:36:10;13.13;;;7.20;;
19187;SDS011;9726;52.198;8.792;2023-11-19T02:38:37;10.13;;;7.47;;
19187;SDS011;9726;52.198;8.792;2023-11-19T02:41:05;11.30;;;7.30;;
19187;SDS011;9726;52.198;8.792;2023-11-19T02:43:33;9.57;;;8.03;;
19187;SDS011;9726;52.198;8.792;2023-11-19T02:46:02;11.50;;;7.73;;
19187;SDS011;9726;52.198;8.792;2023-11-19T02:48:36;11.70;;;8.17;;
19187;SDS011;9726;52.198;8.792;2023-11-19T02:51:05;12.17;;;9.10;;
19187;SDS011;9726;52.198;8.792;2023-11-19T02:53:36;13.67;;;9.47;;
19187;SDS011;9726;52.198;8.792;2023-11-19T02:56:05;10.80;;;8.20;;
19187;SDS011;9726;52.198;8.792;2023-11-19T02:58:38;11.47;;;8.77;;
19187;SDS011;9726;52.198;8.792;2023-11-19T03:01:06;12.40;;;9.27;;
19187;SDS011;9726;52.198;8.792;2023-11-19T03:03:39;16.47;;;9.30;;
19187;SDS011;9726;52.198;8.792;2023-11-19T03:06:08;19.57;;;12.07;;
19187;SDS011;9726;52.198;8.792;2023-11-19T03:08:36;17.97;;;11.47;;
19187;SDS011;9726;52.198;8.792;2023-11-19T03:11:04;17.20;;;12.53;;
19187;SDS011;9726;52.198;8.792;2023-11-19T03:13:31;16.60;;;13.00;;
19187;SDS011;9726;52.198;8.792;2023-11-19T03:15:59;24.63;;;12.93;;
19187;SDS011;9726;52.198;8.792;2023-11-19T03:18:26;21.07;;;14.87;;
19187;SDS011;9726;52.198;8.792;2023-11-19T03:20:55;21.70;;;15.10;;
19187;SDS011;9726;52.198;8.792;2023-11-19T03:23:24;26.63;;;16.30;;
19187;SDS011;9726;52.198;8.792;2023-11-19T03:25:54;23.23;;;15.83;;
19187;SDS011;9726;52.198;8.792;2023-11-19T03:28:21;25.00;;;16.27;;
19187;SDS011;9726;52.198;8.792;2023-11-19T03:30:49;29.30;;;16.40;;
19187;SDS011;9726;52.198;8.792;2023-11-19T03:33:16;28.57;;;17.43;;
19187;SDS011;9726;52.198;8.792;2023-11-19T03:35:44;27.47;;;18.10;;
19187;SDS011;9726;52.198;8.792;2023-11-19T03:38:12;25.87;;;17.70;;
19187;SDS011;9726;52.198;8.792;2023-11-19T03:40:41;36.77;;;18.33;;
19187;SDS011;9726;52.198;8.792;2023-11-19T03:43:08;36.50;;;20.40;;
19187;SDS011;9726;52.198;8.792;2023-11-19T03:45:36;35.37;;;21.03;;
19187;SDS011;9726;52.198;8.792;2023-11-19T03:48:06;34.80;;;20.47;;
19187;SDS011;9726;52.198;8.792;2023-11-19T03:50:33;34.43;;;22.77;;
19187;SDS011;9726;52.198;8.792;2023-11-19T03:53:01;36.23;;;21.03;;
19187;SDS011;9726;52.198;8.792;2023-11-19T03:55:29;36.97;;;20.97;;
19187;SDS011;9726;52.198;8.792;2023-11-19T03:57:56;29.20;;;20.23;;
19187;SDS011;9726;52.198;8.792;2023-11-19T04:00:24;32.97;;;21.80;;
19187;SDS011;9726;52.198;8.792;2023-11-19T04:02:52;39.90;;;23.13;;
19187;SDS011;9726;52.198;8.792;2023-11-19T04:05:19;34.53;;;22.20;;
19187;SDS011;9726;52.198;8.792;2023-11-19T04:07:46;34.40;;;21.23;;
19187;SDS011;9726;52.198;8.792;2023-11-19T04:10:14;35.57;;;21.83;;
19187;SDS011;9726;52.198;8.792;2023-11-19T04:12:43;31.37;;;20.50;;
19187;SDS011;9726;52.198;8.792;2023-11-19T04:15:11;40.10;;;22.33;;
19187;SDS011;9726;52.198;8.792;2023-11-19T04:17:39;41.30;;;20.60;;
19187;SDS011;9726;52.198;8.792;2023-11-19T04:20:06;38.17;;;19.40;;
19187;SDS011;9726;52.198;8.792;2023-11-19T04:22:38;39.27;;;21.60;;
19187;SDS011;9726;52.198;8.792;2023-11-19T04:25:07;36.63;;;22.17;;
19187;SDS011;9726;52.198;8.792;2023-11-19T04:27:35;34.00;;;21.67;;
19187;SDS011;9726;52.198;8.792;2023-11-19T04:30:02;35.77;;;21.43;;
19187;SDS011;9726;52.198;8.792;2023-11-19T04:32:30;39.43;;;23.20;;
19187;SDS011;9726;52.198;8.792;2023-11-19T04:34:58;43.67;;;23.47;;
19187;SDS011;9726;52.198;8.792;2023-11-19T04:37:25;38.20;;;21.53;;
19187;SDS011;9726;52.198;8.792;2023-11-19T04:39:52;38.40;;;20.60;;
19187;SDS011;9726;52.198;8.792;2023-11-19T04:42:21;39.63;;;22.97;;
19187;SDS011;9726;52.198;8.792;2023-11-19T04:44:49;40.33;;;22.07;;
19187;SDS011;9726;52.198;8.792;2023-11-19T04:47:16;37.67;;;22.53;;
19187;SDS011;9726;52.198;8.792;2023-11-19T04:49:44;45.13;;;24.07;;
19187;SDS011;9726;52.198;8.792;2023-11-19T04:52:11;33.40;;;23.03;;
19187;SDS011;9726;52.198;8.792;2023-11-19T04:54:42;38.83;;;24.07;;
19187;SDS011;9726;52.198;8.792;2023-11-19T04:57:10;42.67;;;23.40;;
19187;SDS011;9726;52.198;8.792;2023-11-19T04:59:38;36.43;;;23.53;;
19187;SDS011;9726;52.198;8.792;2023-11-19T05:02:05;34.33;;;21.10;;
19187;SDS011;9726;52.198;8.792;2023-11-19T05:04:32;42.50;;;22.93;;
19187;SDS011;9726;52.198;8.792;2023-11-19T05:06:59;48.50;;;20.47;;
19187;SDS011;9726;52.198;8.792;2023-11-19T05:09:27;45.73;;;21.33;;
19187;SDS011;9726;52.198;8.792;2023-11-19T05:11:54;36.73;;;19.37;;
19187;SDS011;9726;52.198;8.792;2023-11-19T05:14:21;43.50;;;18.90;;
19187;SDS011;9726;52.198;8.792;2023-11-19T05:16:48;33.57;;;16.77;;
19187;SDS011;9726;52.198;8.792;2023-11-19T05:19:16;35.00;;;16.27;;
19187;SDS011;9726;52.198;8.792;2023-11-19T05:21:43;32.40;;;14.50;;
19187;SDS011;9726;52.198;8.792;2023-11-19T05:24:10;30.07;;;14.77;;
19187;SDS011;9726;52.198;8.792;2023-11-19T05:26:41;33.93;;;13.57;;
19187;SDS011;9726;52.198;8.792;2023-11-19T05:29:08;35.33;;;13.00;;
19187;SDS011;9726;52.198;8.792;2023-11-19T05:31:35;39.67;;;13.20;;
19187;SDS011;9726;52.198;8.792;2023-11-19T05:34:04;36.43;;;11.37;;
19187;SDS011;9726;52.198;8.792;2023-11-19T05:36:31;19.07;;;10.23;;
19187;SDS011;9726;52.198;8.792;2023-11-19T05:38:59;35.13;;;9.40;;
19187;SDS011;9726;52.198;8.792;2023-11-19T05:41:27;32.77;;;9.17;;
19187;SDS011;9726;52.198;8.792;2023-11-19T05:43:54;29.87;;;7.90;;
19187;SDS011;9726;52.198;8.792;2023-11-19T05:46:22;27.70;;;7.60;;
19187;SDS011;9726;52.198;8.792;2023-11-19T05:48:49;35.03;;;6.40;;
19187;SDS011;9726;52.198;8.792;2023-11-19T05:51:17;50.17;;;7.93;;
19187;SDS011;9726;52.198;8.792;2023-11-19T05:53:45;26.43;;;5.60;;
19187;SDS011;9726;52.198;8.792;2023-11-19T05:56:12;34.07;;;5.73;;
19187;SDS011;9726;52.198;8.792;2023-11-19T05:58:42;29.63;;;6.20;;
19187;SDS011;9726;52.198;8.792;2023-11-19T06:01:11;46.97;;;7.40;;
19187;SDS011;9726;52.198;8.792;2023-11-19T06:03:39;32.43;;;6.57;;
19187;SDS011;9726;52.198;8.792;2023-11-19T06:06:07;27.83;;;7.03;;
19187;SDS011;9726;52.198;8.792;2023-11-19T06:08:34;37.90;;;6.47;;
19187;SDS011;9726;52.198;8.792;2023-11-19T06:11:02;31.63;;;6.13;;
19187;SDS011;9726;52.198;8.792;2023-11-19T06:13:29;29.50;;;4.87;;
19187;SDS011;9726;52.198;8.792;2023-11-19T06:15:57;29.23;;;5.70;;
19187;SDS011;9726;52.198;8.792;2023-11-19T06:18:25;41.17;;;6.30;;
19187;SDS011;9726;52.198;8.792;2023-11-19T06:20:54;29.00;;;5.43;;
19187;SDS011;9726;52.198;8.792;2023-11-19T06:23:22;32.73;;;6.57;;
19187;SDS011;9726;52.198;8.792;2023-11-19T06:25:49;22.10;;;4.87;;
19187;SDS011;9726;52.198;8.792;2023-11-19T06:28:16;40.47;;;6.47;;
19187;SDS011;9726;52.198;8.792;2023-11-19T06:30:44;33.53;;;5.53;;
19187;SDS011;9726;52.198;8.792;2023-11-19T06:33:15;36.93;;;4.70;;
19187;SDS011;9726;52.198;8.792;2023-11-19T06:35:42;38.90;;;6.53;;
19187;SDS011;9726;52.198;8.792;2023-11-19T06:38:10;35.47;;;6.57;;
19187;SDS011;9726;52.198;8.792;2023-11-19T06:40:38;32.67;;;5.77;;
19187;SDS011;9726;52.198;8.792;2023-11-19T06:43:06;33.03;;;4.50;;
19187;SDS011;9726;52.198;8.792;2023-11-19T06:45:37;30.73;;;5.97;;
19187;SDS011;9726;52.198;8.792;2023-11-19T06:48:04;30.10;;;5.47;;
19187;SDS011;9726;52.198;8.792;2023-11-19T06:50:32;32.63;;;5.23;;
19187;SDS011;9726;52.198;8.792;2023-11-19T06:53:00;23.80;;;5.83;;
19187;SDS011;9726;52.198;8.792;2023-11-19T06:55:27;45.07;;;6.67;;
19187;SDS011;9726;52.198;8.792;2023-11-19T06:57:55;46.37;;;6.53;;
19187;SDS011;9726;52.198;8.792;2023-11-19T07:00:23;45.93;;;6.87;;
19187;SDS011;9726;52.198;8.792;2023-11-19T07:02:50;35.33;;;5.30;;
19187;SDS011;9726;52.198;8.792;2023-11-19T07:05:18;47.17;;;6.73;;
19187;SDS011;9726;52.198;8.792;2023-11-19T07:07:46;46.80;;;6.60;;
19187;SDS011;9726;52.198;8.792;2023-11-19T07:10:14;49.97;;;7.40;;
19187;SDS011;9726;52.198;8.792;2023-11-19T07:12:42;58.87;;;6.60;;
19187;SDS011;9726;52.198;8.792;2023-11-19T07:15:11;39.30;;;5.97;;
19187;SDS011;9726;52.198;8.792;2023-11-19T07:17:39;48.43;;;6.73;;
19187;SDS011;9726;52.198;8.792;2023-11-19T07:20:07;41.53;;;6.40;;
19187;SDS011;9726;52.198;8.792;2023-11-19T07:22:35;43.77;;;6.37;;
19187;SDS011;9726;52.198;8.792;2023-11-19T07:25:07;49.90;;;8.23;;
19187;SDS011;9726;52.198;8.792;2023-11-19T07:27:35;36.33;;;6.20;;
19187;SDS011;9726;52.198;8.792;2023-11-19T07:30:03;34.20;;;5.70;;
19187;SDS011;9726;52.198;8.792;2023-11-19T07:32:30;44.73;;;5.27;;
19187;SDS011;9726;52.198;8.792;2023-11-19T07:34:58;26.57;;;6.07;;
19187;SDS011;9726;52.198;8.792;2023-11-19T07:37:26;41.87;;;6.13;;
19187;SDS011;9726;52.198;8.792;2023-11-19T07:39:53;45.73;;;9.07;;
19187;SDS011;9726;52.198;8.792;2023-11-19T07:42:21;57.43;;;6.60;;
19187;SDS011;9726;52.198;8.792;2023-11-19T07:44:49;35.00;;;5.33;;
19187;SDS011;9726;52.198;8.792;2023-11-19T07:47:17;43.37;;;6.67;;
19187;SDS011;9726;52.198;8.792;2023-11-19T07:49:45;41.60;;;5.70;;
19187;SDS011;9726;52.198;8.792;2023-11-19T07:52:12;38.90;;;5.90;;
19187;SDS011;9726;52.198;8.792;2023-11-19T07:54:42;46.03;;;7.30;;
19187;SDS011;9726;52.198;8.792;2023-11-19T07:57:10;41.40;;;7.00;;
19187;SDS011;9726;52.198;8.792;2023-11-19T07:59:38;43.03;;;6.47;;
19187;SDS011;9726;52.198;8.792;2023-11-19T08:02:06;46.57;;;7.57;;
19187;SDS011;9726;52.198;8.792;2023-11-19T08:04:34;41.40;;;7.60;;
19187;SDS011;9726;52.198;8.792;2023-11-19T08:07:01;39.40;;;5.97;;
19187;SDS011;9726;52.198;8.792;2023-11-19T08:09:29;50.17;;;8.27;;
19187;SDS011;9726;52.198;8.792;2023-11-19T08:11:57;48.83;;;6.50;;
19187;SDS011;9726;52.198;8.792;2023-11-19T08:14:25;52.37;;;8.23;;
19187;SDS011;9726;52.198;8.792;2023-11-19T08:16:52;43.90;;;7.27;;
19187;SDS011;9726;52.198;8.792;2023-11-19T08:19:20;49.30;;;6.87;;
19187;SDS011;9726;52.198;8.792;2023-11-19T08:21:47;41.17;;;7.17;;
19187;SDS011;9726;52.198;8.792;2023-11-19T08:24:15;37.90;;;5.63;;
19187;SDS011;9726;52.198;8.792;2023-11-19T08:26:42;56.13;;;7.83;;
19187;SDS011;9726;52.198;8.792;2023-11-19T08:29:10;42.43;;;8.23;;
19187;SDS011;9726;52.198;8.792;2023-11-19T08:31:38;47.73;;;8.83;;
19187;SDS011;9726;52.198;8.792;2023-11-19T08:34:06;46.20;;;7.10;;
19187;SDS011;9726;52.198;8.792;2023-11-19T08:36:36;45.83;;;7.47;;
19187;SDS011;9726;52.198;8.792;2023-11-19T08:39:04;46.70;;;6.37;;
19187;SDS011;9726;52.198;8.792;2023-11-19T08:41:32;48.57;;;7.10;;
19187;SDS011;9726;52.198;8.792;2023-11-19T08:44:00;43.70;;;6.00;;
19187;SDS011;9726;52.198;8.792;2023-11-19T08:46:28;45.10;;;6.53;;
19187;SDS011;9726;52.198;8.792;2023-11-19T08:48:55;44.13;;;7.63;;
19187;SDS011;9726;52.198;8.792;2023-11-19T08:51:24;49.27;;;5.90;;
19187;SDS011;9726;52.198;8.792;2023-11-19T08:53:52;49.57;;;8.27;;
19187;SDS011;9726;52.198;8.792;2023-11-19T08:56:20;42.00;;;6.37;;
19187;SDS011;9726;52.198;8.792;2023-11-19T08:58:47;50.97;;;6.13;;
19187;SDS011;9726;52.198;8.792;2023-11-19T09:01:15;62.17;;;7.43;;
19187;SDS011;9726;52.198;8.792;2023-11-19T09:03:43;38.17;;;7.00;;
19187;SDS011;9726;52.198;8.792;2023-11-19T09:06:11;58.00;;;6.93;;
19187;SDS011;9726;52.198;8.792;2023-11-19T09:08:38;42.07;;;6.43;;
19187;SDS011;9726;52.198;8.792;2023-11-19T09:11:07;58.60;;;7.13;;
19187;SDS011;9726;52.198;8.792;2023-11-19T09:13:35;45.27;;;6.50;;
19187;SDS011;9726;52.198;8.792;2023-11-19T09:16:03;38.93;;;5.93;;
19187;SDS011;9726;52.198;8.792;2023-11-19T09:18:31;45.57;;;8.43;;
19187;SDS011;9726;52.198;8.792;2023-11-19T09:20:58;43.73;;;6.57;;
19187;SDS011;9726;52.198;8.792;2023-11-19T09:23:26;46.43;;;6.90;;
19187;SDS011;9726;52.198;8.792;2023-11-19T09:25:57;59.13;;;8.30;;
19187;SDS011;9726;52.198;8.792;2023-11-19T09:28:25;46.53;;;5.97;;
19187;SDS011;9726;52.198;8.792;2023-11-19T09:30:52;49.17;;;7.57;;
19187;SDS011;9726;52.198;8.792;2023-11-19T09:33:20;45.17;;;7.13;;
19187;SDS011;9726;52.198;8.792;2023-11-19T09:35:47;58.83;;;6.90;;
19187;SDS011;9726;52.198;8.792;2023-11-19T09:38:16;50.83;;;7.20;;
19187;SDS011;9726;52.198;8.792;2023-11-19T09:40:45;45.90;;;6.93;;
19187;SDS011;9726;52.198;8.792;2023-11-19T09:43:12;49.00;;;7.00;;
19187;SDS011;9726;52.198;8.792;2023-11-19T09:45:49;36.77;;;7.13;;
19187;SDS011;9726;52.198;8.792;2023-11-19T09:48:17;52.30;;;7.13;;
19187;SDS011;9726;52.198;8.792;2023-11-19T09:50:46;56.33;;;8.50;;
19187;SDS011;9726;52.198;8.792;2023-11-19T09:53:14;46.87;;;7.03;;
19187;SDS011;9726;52.198;8.792;2023-11-19T09:55:43;62.07;;;9.77;;
19187;SDS011;9726;52.198;8.792;2023-11-19T09:58:12;67.73;;;8.70;;
19187;SDS011;9726;52.198;8.792;2023-11-19T10:00:42;58.17;;;9.07;;
19187;SDS011;9726;52.198;8.792;2023-11-19T10:03:12;53.90;;;8.20;;
19187;SDS011;9726;52.198;8.792;2023-11-19T10:05:41;54.27;;;8.23;;
19187;SDS011;9726;52.198;8.792;2023-11-19T10:08:08;56.40;;;8.70;;
19187;SDS011;9726;52.198;8.792;2023-11-19T10:10:37;48.13;;;7.57;;
19187;SDS011;9726;52.198;8.792;2023-11-19T10:13:04;51.93;;;7.20;;
19187;SDS011;9726;52.198;8.792;2023-11-19T10:15:35;52.47;;;8.77;;
19187;SDS011;9726;52.198;8.792;2023-11-19T10:18:04;47.60;;;7.63;;
19187;SDS011;9726;52.198;8.792;2023-11-19T10:20:37;36.90;;;6.50;;
19187;SDS011;9726;52.198;8.792;2023-11-19T10:23:08;46.63;;;6.87;;
19187;SDS011;9726;52.198;8.792;2023-11-19T10:25:36;47.10;;;8.23;;
19187;SDS011;9726;52.198;8.792;2023-11-19T10:28:03;54.00;;;6.37;;
19187;SDS011;9726;52.198;8.792;2023-11-19T10:30:31;51.27;;;8.23;;
19187;SDS011;9726;52.198;8.792;2023-11-19T10:33:10;42.73;;;6.20;;
19187;SDS011;9726;52.198;8.792;2023-11-19T10:35:58;45.70;;;8.43;;
19187;SDS011;9726;52.198;8.792;2023-11-19T10:38:28;43.20;;;8.07;;
19187;SDS011;9726;52.198;8.792;2023-11-19T10:40:57;47.80;;;6.30;;
19187;SDS011;9726;52.198;8.792;2023-11-19T10:43:25;53.13;;;7.83;;
19187;SDS011;9726;52.198;8.792;2023-11-19T10:45:54;37.60;;;6.73;;
19187;SDS011;9726;52.198;8.792;2023-11-19T10:48:36;55.53;;;7.57;;
19187;SDS011;9726;52.198;8.792;2023-11-19T10:51:04;56.43;;;7.87;;
19187;SDS011;9726;52.198;8.792;2023-11-19T10:53:37;55.67;;;8.40;;
19187;SDS011;9726;52.198;8.792;2023-11-19T10:56:06;60.57;;;7.43;;
19187;SDS011;9726;52.198;8.792;2023-11-19T10:58:35;53.07;;;6.50;;
19187;SDS011;9726;52.198;8.792;2023-11-19T11:01:11;43.47;;;6.30;;
19187;SDS011;9726;52.198;8.792;2023-11-19T11:03:41;48.97;;;7.57;;
19187;SDS011;9726;52.198;8.792;2023-11-19T11:06:09;50.73;;;8.00;;
19187;SDS011;9726;52.198;8.792;2023-11-19T11:08:37;48.07;;;9.47;;
19187;SDS011;9726;52.198;8.792;2023-11-19T11:11:06;53.03;;;9.37;;
19187;SDS011;9726;52.198;8.792;2023-11-19T11:13:34;77.20;;;17.00;;
19187;SDS011;9726;52.198;8.792;2023-11-19T11:16:03;47.70;;;6.33;;
19187;SDS011;9726;52.198;8.792;2023-11-19T11:18:34;48.33;;;6.70;;
19187;SDS011;9726;52.198;8.792;2023-11-19T11:21:06;54.80;;;8.80;;
19187;SDS011;9726;52.198;8.792;2023-11-19T11:29:14;36.73;;;7.07;;
19187;SDS011;9726;52.198;8.792;2023-11-19T11:37:03;43.27;;;6.97;;
19187;SDS011;9726;52.198;8.792;2023-11-19T11:39:34;39.80;;;7.03;;
19187;SDS011;9726;52.198;8.792;2023-11-19T11:44:57;51.07;;;8.17;;
19187;SDS011;9726;52.198;8.792;2023-11-19T11:50:17;63.77;;;8.00;;
19187;SDS011;9726;52.198;8.792;2023-11-19T11:57:54;56.67;;;6.93;;
19187;SDS011;9726;52.198;8.792;2023-11-19T12:00:22;59.43;;;8.03;;
19187;SDS011;9726;52.198;8.792;2023-11-19T12:03:00;57.27;;;8.30;;
19187;SDS011;9726;52.198;8.792;2023-11-19T12:05:29;59.90;;;7.77;;
19187;SDS011;9726;52.198;8.792;2023-11-19T12:08:01;50.73;;;7.57;;
19187;SDS011;9726;52.198;8.792;2023-11-19T12:10:29;58.43;;;7.47;;
19187;SDS011;9726;52.198;8.792;2023-11-19T12:13:00;51.63;;;7.87;;
19187;SDS011;9726;52.198;8.792;2023-11-19T12:15:28;44.73;;;6.37;;
19187;SDS011;9726;52.198;8.792;2023-11-19T12:17:56;60.13;;;6.83;;
19187;SDS011;9726;52.198;8.792;2023-11-19T12:20:24;45.37;;;6.63;;
19187;SDS011;9726;52.198;8.792;2023-11-19T12:22:55;65.23;;;7.43;;
19187;SDS011;9726;52.198;8.792;2023-11-19T12:25:24;57.80;;;9.13;;
19187;SDS011;9726;52.198;8.792;2023-11-19T12:27:52;55.47;;;7.60;;
19187;SDS011;9726;52.198;8.792;2023-11-19T12:30:24;60.77;;;8.43;;
19187;SDS011;9726;52.198;8.792;2023-11-19T12:32:53;41.87;;;8.00;;
19187;SDS011;9726;52.198;8.792;2023-11-19T12:35:22;55.43;;;8.10;;
19187;SDS011;9726;52.198;8.792;2023-11-19T12:37:50;44.37;;;8.53;;
19187;SDS011;9726;52.198;8.792;2023-11-19T12:40:19;45.10;;;6.93;;
19187;SDS011;9726;52.198;8.792;2023-11-19T12:42:48;46.07;;;6.87;;
19187;SDS011;9726;52.198;8.792;2023-11-19T12:45:16;55.63;;;11.20;;
19187;SDS011;9726;52.198;8.792;2023-11-19T12:47:46;59.17;;;11.57;;
19187;SDS011;9726;52.198;8.792;2023-11-19T12:50:16;45.07;;;7.73;;
19187;SDS011;9726;52.198;8.792;2023-11-19T12:52:58;34.60;;;7.73;;
19187;SDS011;9726;52.198;8.792;2023-11-19T12:55:29;36.27;;;6.03;;
19187;SDS011;9726;52.198;8.792;2023-11-19T12:57:57;45.93;;;7.63;;
19187;SDS011;9726;52.198;8.792;2023-11-19T13:00:26;47.90;;;7.37;;
19187;SDS011;9726;52.198;8.792;2023-11-19T13:02:55;49.20;;;7.73;;
19187;SDS011;9726;52.198;8.792;2023-11-19T13:05:24;45.83;;;8.23;;
19187;SDS011;9726;52.198;8.792;2023-11-19T13:10:27;60.23;;;7.47;;
19187;SDS011;9726;52.198;8.792;2023-11-19T13:13:04;50.57;;;6.73;;
19187;SDS011;9726;52.198;8.792;2023-11-19T13:15:35;56.27;;;8.00;;
19187;SDS011;9726;52.198;8.792;2023-11-19T13:18:03;45.70;;;7.97;;
19187;SDS011;9726;52.198;8.792;2023-11-19T13:20:30;49.47;;;8.10;;
19187;SDS011;9726;52.198;8.792;2023-11-19T13:23:00;48.47;;;8.63;;
19187;SDS011;9726;52.198;8.792;2023-11-19T13:25:29;72.53;;;9.23;;
19187;SDS011;9726;52.198;8.792;2023-11-19T13:27:58;54.17;;;8.70;;
19187;SDS011;9726;52.198;8.792;2023-11-19T13:30:33;44.87;;;6.70;;
19187;SDS011;9726;52.198;8.792;2023-11-19T13:33:01;80.40;;;10.17;;
19187;SDS011;9726;52.198;8.792;2023-11-19T13:35:29;56.73;;;8.27;;
19187;SDS011;9726;52.198;8.792;2023-11-19T13:37:56;46.07;;;8.17;;
19187;SDS011;9726;52.198;8.792;2023-11-19T13:40:24;45.73;;;7.17;;
19187;SDS011;9726;52.198;8.792;2023-11-19T13:42:52;53.17;;;7.83;;
19187;SDS011;9726;52.198;8.792;2023-11-19T13:45:20;42.30;;;7.50;;
19187;SDS011;9726;52.198;8.792;2023-11-19T13:47:47;50.70;;;6.93;;
19187;SDS011;9726;52.198;8.792;2023-11-19T13:50:16;41.50;;;6.20;;
19187;SDS011;9726;52.198;8.792;2023-11-19T13:52:44;48.93;;;7.00;;
19187;SDS011;9726;52.198;8.792;2023-11-19T13:55:13;42.23;;;6.87;;
19187;SDS011;9726;52.198;8.792;2023-11-19T13:57:41;32.33;;;5.97;;
19187;SDS011;9726;52.198;8.792;2023-11-19T14:00:11;40.70;;;6.33;;
19187;SDS011;9726;52.198;8.792;2023-11-19T14:02:40;32.77;;;5.50;;
19187;SDS011;9726;52.198;8.792;2023-11-19T14:05:08;43.90;;;7.53;;
19187;SDS011;9726;52.198;8.792;2023-11-19T14:07:37;52.50;;;7.73;;
19187;SDS011;9726;52.198;8.792;2023-11-19T14:10:06;48.80;;;9.40;;
19187;SDS011;9726;52.198;8.792;2023-11-19T14:12:36;28.77;;;5.50;;
19187;SDS011;9726;52.198;8.792;2023-11-19T14:15:06;46.07;;;5.77;;
19187;SDS011;9726;52.198;8.792;2023-11-19T14:17:35;38.93;;;5.93;;
19187;SDS011;9726;52.198;8.792;2023-11-19T14:20:03;43.63;;;5.87;;
19187;SDS011;9726;52.198;8.792;2023-11-19T14:22:39;41.67;;;6.90;;
19187;SDS011;9726;52.198;8.792;2023-11-19T14:25:07;34.53;;;5.53;;
19187;SDS011;9726;52.198;8.792;2023-11-19T14:27:37;35.87;;;6.93;;
19187;SDS011;9726;52.198;8.792;2023-11-19T14:30:08;57.47;;;6.77;;
19187;SDS011;9726;52.198;8.792;2023-11-19T14:32:46;37.00;;;5.87;;
19187;SDS011;9726;52.198;8.792;2023-11-19T14:35:15;38.43;;;6.00;;
19187;SDS011;9726;52.198;8.792;2023-11-19T14:37:42;36.67;;;5.90;;
19187;SDS011;9726;52.198;8.792;2023-11-19T14:40:11;32.00;;;6.00;;
19187;SDS011;9726;52.198;8.792;2023-11-19T14:42:39;37.77;;;7.10;;
19187;SDS011;9726;52.198;8.792;2023-11-19T14:45:07;38.57;;;7.03;;
19187;SDS011;9726;52.198;8.792;2023-11-19T14:47:34;36.07;;;5.53;;
19187;SDS011;9726;52.198;8.792;2023-11-19T14:50:02;42.63;;;7.00;;
19187;SDS011;9726;52.198;8.792;2023-11-19T14:52:30;37.27;;;5.77;;
19187;SDS011;9726;52.198;8.792;2023-11-19T14:54:58;31.53;;;5.33;;
19187;SDS011;9726;52.198;8.792;2023-11-19T14:57:25;36.30;;;5.87;;
19187;SDS011;9726;52.198;8.792;2023-11-19T14:59:53;26.57;;;5.17;;
19187;SDS011;9726;52.198;8.792;2023-11-19T15:02:21;38.57;;;6.20;;
19187;SDS011;9726;52.198;8.792;2023-11-19T15:04:49;36.13;;;4.87;;
19187;SDS011;9726;52.198;8.792;2023-11-19T15:07:16;42.80;;;6.93;;
19187;SDS011;9726;52.198;8.792;2023-11-19T15:09:44;40.03;;;7.17;;
19187;SDS011;9726;52.198;8.792;2023-11-19T15:12:12;42.10;;;6.23;;
19187;SDS011;9726;52.198;8.792;2023-11-19T15:14:40;44.50;;;6.37;;
19187;SDS011;9726;52.198;8.792;2023-11-19T15:17:08;46.00;;;7.47;;
19187;SDS011;9726;52.198;8.792;2023-11-19T15:19:36;37.53;;;7.80;;